Time;durP1;ratioP1;P1;durP2;ratioP2;P2;SDS_P1;SDS_P2;PMS_P1;PMS_P2;Temp;Humidity;BMP_temperature;BMP_pressure;BME280_temperature;BME280_humidity;BME280_pressure;Samples;Min_cycle;Max_cycle;Signal;HPM_P1;HPM_P2
2021/05/03 00:01:45;;;;;;;9.50;8.80;;;8.70;93.30;;;;;;5055161;28;20605;-84
2021/05/03 00:04:11;;;;;;;10.17;9.27;;;8.60;93.00;;;;;;5055203;28;20375;-84
2021/05/03 00:06:36;;;;;;;8.87;7.97;;;8.70;93.00;;;;;;5036587;28;20465;-84
2021/05/03 00:09:04;;;;;;;9.17;8.47;;;8.60;93.10;;;;;;5035889;28;20399;-84
2021/05/03 00:11:29;;;;;;;9.20;8.40;;;8.50;93.20;;;;;;5055133;28;20177;-84
2021/05/03 00:13:55;;;;;;;10.43;8.40;;;8.50;93.10;;;;;;5054434;28;20419;-84
2021/05/03 00:16:21;;;;;;;9.17;8.47;;;8.40;93.10;;;;;;5055125;28;20565;-84
2021/05/03 00:18:46;;;;;;;9.70;8.80;;;8.40;93.10;;;;;;5054165;28;20247;-83
2021/05/03 00:21:12;;;;;;;9.30;8.50;;;8.30;93.30;;;;;;5054990;28;20176;-84
2021/05/03 00:23:38;;;;;;;9.17;8.47;;;8.30;93.20;;;;;;5054945;28;20228;-84
2021/05/03 00:26:04;;;;;;;8.40;7.70;;;8.20;93.20;;;;;;5054895;28;20234;-84
2021/05/03 00:28:30;;;;;;;8.30;7.50;;;8.20;93.30;;;;;;5054831;28;20895;-84
2021/05/03 00:30:55;;;;;;;8.43;7.60;;;8.20;93.40;;;;;;5054148;28;20591;-84
2021/05/03 00:33:21;;;;;;;8.80;8.00;;;8.10;93.50;;;;;;5054703;28;20181;-84
2021/05/03 00:35:47;;;;;;;9.10;8.30;;;8.10;93.40;;;;;;5053977;28;20286;-83
2021/05/03 00:38:12;;;;;;;9.03;8.23;;;8.10;93.30;;;;;;5054653;28;20180;-84
2021/05/03 00:40:38;;;;;;;8.20;7.50;;;8.10;93.60;;;;;;5054569;28;20687;-84
2021/05/03 00:43:04;;;;;;;7.97;7.33;;;8.10;93.70;;;;;;5053974;28;20168;-84
2021/05/03 00:45:30;;;;;;;8.00;7.40;;;8.10;93.70;;;;;;5054205;28;20186;-84
2021/05/03 00:47:56;;;;;;;7.90;7.17;;;8.10;93.50;;;;;;5036082;28;20229;-84
2021/05/03 00:50:24;;;;;;;7.73;7.03;;;8.00;93.10;;;;;;5054530;28;20447;-84
2021/05/03 00:52:50;;;;;;;7.60;7.00;;;8.00;93.00;;;;;;5035965;28;20392;-84
2021/05/03 00:55:16;;;;;;;9.20;8.40;;;8.00;93.10;;;;;;5054968;28;20458;-85
2021/05/03 00:57:42;;;;;;;8.67;7.87;;;7.90;93.00;;;;;;5036985;28;20381;-84
2021/05/03 01:00:11;;;;;;;7.67;7.07;;;7.90;93.00;;;;;;5054605;28;20498;-85
2021/05/03 01:02:37;;;;;;;8.07;7.33;;;7.90;93.00;;;;;;5054521;28;20196;-84
2021/05/03 01:05:04;;;;;;;7.80;7.17;;;7.90;93.20;;;;;;5053248;28;20462;-84
2021/05/03 01:07:30;;;;;;;8.00;7.33;;;7.80;93.10;;;;;;5054055;28;20378;-82
2021/05/03 01:09:55;;;;;;;7.67;7.07;;;7.80;93.20;;;;;;5053457;28;20390;-82
2021/05/03 01:12:21;;;;;;;8.17;7.37;;;7.90;93.20;;;;;;5053993;28;20174;-82
2021/05/03 01:14:47;;;;;;;8.43;7.60;;;7.70;93.30;;;;;;5053367;28;20575;-82
2021/05/03 01:17:13;;;;;;;7.77;7.07;;;7.70;93.20;;;;;;5053872;28;20385;-82
2021/05/03 01:19:38;;;;;;;8.10;7.33;;;7.70;93.30;;;;;;5053670;28;20283;-82
2021/05/03 01:22:04;;;;;;;8.20;7.40;;;7.60;93.40;;;;;;5053024;28;20176;-82
2021/05/03 01:24:30;;;;;;;8.13;7.33;;;7.60;93.30;;;;;;5053406;28;20223;-82
2021/05/03 01:26:58;;;;;;;9.83;7.50;;;7.60;93.20;;;;;;5053462;28;20730;-82
2021/05/03 01:29:24;;;;;;;9.10;8.30;;;7.50;93.20;;;;;;5035934;28;20182;-82
2021/05/03 01:31:51;;;;;;;8.13;7.43;;;7.60;93.40;;;;;;5052949;28;20476;-82
2021/05/03 01:34:17;;;;;;;9.20;8.30;;;7.60;93.50;;;;;;5053628;28;20596;-83
2021/05/03 01:36:44;;;;;;;8.43;7.63;;;7.60;93.60;;;;;;5053028;28;20546;-80
2021/05/03 01:39:13;;;;;;;8.57;7.80;;;7.60;93.50;;;;;;5053457;28;20385;-83
2021/05/03 01:41:39;;;;;;;7.67;6.97;;;7.60;93.40;;;;;;5053413;28;20447;-82
2021/05/03 01:44:08;;;;;;;8.37;7.67;;;7.60;93.40;;;;;;5035028;28;20393;-82
2021/05/03 01:46:35;;;;;;;7.90;7.30;;;7.60;93.40;;;;;;5053301;28;20450;-83
2021/05/03 01:49:03;;;;;;;7.83;7.23;;;7.60;93.50;;;;;;5052750;28;20380;-82
2021/05/03 01:51:30;;;;;;;9.20;8.40;;;7.50;93.70;;;;;;5053250;28;20485;-82
2021/05/03 01:53:56;;;;;;;8.17;7.53;;;7.50;93.40;;;;;;5052514;28;20403;-82
2021/05/03 01:56:26;;;;;;;9.00;8.20;;;7.40;93.10;;;;;;5053131;28;20430;-82
2021/05/03 01:58:53;;;;;;;9.07;8.27;;;7.40;93.00;;;;;;5052836;28;20849;-82
2021/05/03 02:01:20;;;;;;;8.60;7.80;;;7.50;93.10;;;;;;5053107;28;20376;-82
2021/05/03 02:03:46;;;;;;;8.63;7.73;;;7.30;93.40;;;;;;5052590;28;20456;-81
2021/05/03 02:06:15;;;;;;;9.13;8.43;;;7.30;93.30;;;;;;5053121;28;20383;-82
2021/05/03 02:08:41;;;;;;;7.93;7.23;;;7.30;93.20;;;;;;5053019;28;20387;-82
2021/05/03 02:11:08;;;;;;;10.15;8.45;;;7.20;93.10;;;;;;5052404;28;20771;-82
2021/05/03 02:13:34;;;;;;;8.90;8.10;;;7.20;93.20;;;;;;5052976;28;20175;-82
2021/05/03 02:16:00;;;;;;;9.13;8.33;;;7.20;93.20;;;;;;5034207;28;20452;-82
2021/05/03 02:18:26;;;;;;;9.20;8.40;;;7.20;93.20;;;;;;5052811;28;20458;-82
2021/05/03 02:20:52;;;;;;;9.63;8.63;;;7.20;93.30;;;;;;5034433;28;20372;-82
2021/05/03 02:23:18;;;;;;;8.40;7.50;;;7.10;93.60;;;;;;5052714;28;20677;-82
2021/05/03 02:25:44;;;;;;;8.63;7.80;;;7.10;93.30;;;;;;5052865;28;20478;-82
2021/05/03 02:28:10;;;;;;;9.50;8.50;;;7.10;93.40;;;;;;5052056;28;20396;-82
2021/05/03 02:30:37;;;;;;;9.43;8.63;;;7.10;93.50;;;;;;5052033;28;20177;-82
2021/05/03 02:33:03;;;;;;;8.53;7.83;;;7.10;93.50;;;;;;5051702;28;20927;-82
2021/05/03 02:35:31;;;;;;;8.90;8.00;;;7.10;93.40;;;;;;5052169;28;20428;-82
2021/05/03 02:37:59;;;;;;;9.67;8.80;;;7.20;93.60;;;;;;5051966;28;20405;-83
2021/05/03 02:40:26;;;;;;;9.00;8.23;;;7.10;94.00;;;;;;5052125;28;20380;-83
2021/05/03 02:42:53;;;;;;;8.15;7.55;;;7.10;93.70;;;;;;5051833;28;20414;-82
2021/05/03 02:45:20;;;;;;;8.57;7.88;;;7.10;93.70;;;;;;5052589;28;20182;-82
2021/05/03 02:47:46;;;;;;;8.57;7.77;;;7.10;93.30;;;;;;5052421;28;20169;-83
2021/05/03 02:50:14;;;;;;;10.30;9.30;;;7.00;93.20;;;;;;5051590;28;20429;-82
2021/05/03 02:52:41;;;;;;;9.70;8.80;;;7.00;93.20;;;;;;5052456;28;20487;-82
2021/05/03 02:55:11;;;;;;;9.63;8.83;;;7.00;93.00;;;;;;5051644;28;20530;-82
2021/05/03 02:57:38;;;;;;;9.67;8.87;;;7.00;93.00;;;;;;5052483;28;20543;-86
2021/05/03 03:00:06;;;;;;;10.30;9.00;;;6.90;92.90;;;;;;5051918;28;20394;-86
2021/05/03 03:02:32;;;;;;;10.13;9.23;;;7.00;93.20;;;;;;5052389;28;20406;-86
2021/05/03 03:04:58;;;;;;;9.97;8.97;;;6.90;93.10;;;;;;5051368;28;20453;-85
2021/05/03 03:07:24;;;;;;;12.17;9.40;;;6.90;93.10;;;;;;5052120;28;20175;-86
2021/05/03 03:09:49;;;;;;;10.23;9.23;;;6.90;93.30;;;;;;5051404;28;20534;-85
2021/05/03 03:12:15;;;;;;;8.60;7.80;;;6.90;93.40;;;;;;5052285;28;20654;-86
2021/05/03 03:14:42;;;;;;;9.60;8.70;;;6.80;93.40;;;;;;5052348;28;20247;-86
2021/05/03 03:17:08;;;;;;;9.80;8.80;;;6.90;93.40;;;;;;5051292;28;20236;-85
2021/05/03 03:19:39;;;;;;;9.50;8.50;;;6.80;93.20;;;;;;5051810;28;20411;-86
2021/05/03 03:22:06;;;;;;;9.27;8.47;;;6.80;93.20;;;;;;5050820;28;20382;-87
2021/05/03 03:24:32;;;;;;;10.03;8.90;;;6.80;93.50;;;;;;5058136;28;20514;-86
2021/05/03 03:26:58;;;;;;;11.20;9.00;;;6.70;93.20;;;;;;5071009;28;20402;-85
2021/05/03 03:29:23;;;;;;;10.47;9.50;;;6.70;93.10;;;;;;5071382;28;20393;-86
2021/05/03 03:31:49;;;;;;;10.43;9.43;;;6.70;93.10;;;;;;5071727;28;20734;-85
2021/05/03 03:34:15;;;;;;;10.80;9.30;;;6.70;92.80;;;;;;5070898;28;20656;-85
2021/05/03 03:36:40;;;;;;;9.90;8.90;;;6.70;93.10;;;;;;5071260;28;20201;-86
2021/05/03 03:39:06;;;;;;;11.67;9.20;;;6.70;93.20;;;;;;5071269;28;20701;-86
2021/05/03 03:41:34;;;;;;;12.33;9.00;;;6.60;93.20;;;;;;5072465;28;20172;-86
2021/05/03 03:44:03;;;;;;;10.50;8.60;;;6.60;93.40;;;;;;5073900;28;20827;-86
2021/05/03 03:46:30;;;;;;;9.77;8.80;;;6.60;93.30;;;;;;5075946;28;20530;-86
2021/05/03 03:48:56;;;;;;;10.70;8.50;;;6.60;93.10;;;;;;5073758;28;20205;-86
2021/05/03 03:51:22;;;;;;;12.00;10.93;;;6.60;93.10;;;;;;5075619;28;20384;-86
2021/05/03 03:53:49;;;;;;;11.17;10.17;;;6.60;93.30;;;;;;5075259;28;20177;-86
2021/05/03 03:56:17;;;;;;;9.10;8.30;;;6.60;93.50;;;;;;5074896;28;20510;-86
2021/05/03 03:58:43;;;;;;;9.23;8.33;;;6.60;93.50;;;;;;5075513;28;20411;-86
2021/05/03 04:01:10;;;;;;;9.90;9.00;;;6.60;93.30;;;;;;5074856;28;20461;-86
2021/05/03 04:03:47;;;;;;;10.88;9.77;;;6.70;93.30;;;;;;5075648;28;20905;-85
2021/05/03 04:11:30;;;;;;;10.60;9.20;;;6.60;93.10;;;;;;5074605;28;20692;-85
2021/05/03 04:25:06;;;;;;;11.38;10.38;;;6.50;93.80;;;;;;5057685;28;20232;-82
2021/05/03 04:27:34;;;;;;;11.00;10.00;;;6.60;93.90;;;;;;5055066;28;20255;-86
2021/05/03 04:30:00;;;;;;;12.40;10.37;;;6.60;93.90;;;;;;5054503;28;20379;-85
2021/05/03 04:32:25;;;;;;;9.60;8.80;;;6.60;94.10;;;;;;5055113;28;20764;-85
2021/05/03 04:34:51;;;;;;;9.90;8.90;;;6.60;93.90;;;;;;5054296;28;20426;-85
2021/05/03 04:37:17;;;;;;;9.03;8.23;;;6.60;93.90;;;;;;5054043;28;20185;-85
2021/05/03 04:39:42;;;;;;;11.33;8.80;;;6.60;94.00;;;;;;5055020;28;20495;-85
2021/05/03 04:42:08;;;;;;;10.73;9.40;;;6.70;94.10;;;;;;5036327;28;20174;-85
2021/05/03 04:44:34;;;;;;;12.47;11.27;;;6.60;94.20;;;;;;5054472;28;20178;-85
2021/05/03 04:46:59;;;;;;;12.63;10.40;;;6.70;94.10;;;;;;5054299;28;20174;-87
2021/05/03 04:49:26;;;;;;;12.13;9.80;;;6.60;94.00;;;;;;5054467;28;20192;-85
2021/05/03 04:51:52;;;;;;;11.33;9.80;;;6.60;94.20;;;;;;5054656;28;20223;-85
2021/05/03 04:54:18;;;;;;;10.90;9.80;;;6.60;94.10;;;;;;5053178;28;20404;-85
2021/05/03 04:56:43;;;;;;;10.33;9.43;;;6.70;94.10;;;;;;5054348;28;20217;-86
2021/05/03 04:59:09;;;;;;;11.93;10.73;;;6.70;94.20;;;;;;5053456;28;20181;-85
2021/05/03 05:01:35;;;;;;;11.50;10.30;;;6.70;94.00;;;;;;5054272;28;20666;-86
2021/05/03 05:04:00;;;;;;;13.40;9.63;;;6.80;94.20;;;;;;5053701;28;20174;-85
2021/05/03 05:06:26;;;;;;;14.07;11.87;;;6.80;94.10;;;;;;5053957;28;20184;-86
2021/05/03 05:08:52;;;;;;;11.07;9.90;;;6.80;94.00;;;;;;5054163;28;20632;-86
2021/05/03 05:11:17;;;;;;;20.03;11.30;;;6.80;93.90;;;;;;5053548;28;20174;-86
2021/05/03 05:13:43;;;;;;;14.17;12.77;;;6.70;94.10;;;;;;5054159;28;20256;-85
2021/05/03 05:16:09;;;;;;;13.80;12.17;;;6.80;94.40;;;;;;5035285;28;20206;-85
2021/05/03 05:18:36;;;;;;;12.07;10.87;;;6.80;94.60;;;;;;5053933;28;20200;-85
2021/05/03 05:21:02;;;;;;;12.83;11.40;;;6.90;94.50;;;;;;5053443;28;20183;-85
2021/05/03 05:23:28;;;;;;;14.10;12.90;;;7.00;94.40;;;;;;5042583;28;20816;-85
2021/05/03 05:25:54;;;;;;;12.50;10.87;;;7.00;94.40;;;;;;5073862;28;20499;-86
2021/05/03 05:28:19;;;;;;;13.83;10.83;;;7.10;94.40;;;;;;5073149;28;20617;-85
2021/05/03 05:30:45;;;;;;;16.83;11.03;;;7.20;94.70;;;;;;5073432;28;20201;-85
2021/05/03 05:33:11;;;;;;;13.23;11.90;;;7.20;94.30;;;;;;5072466;28;20451;-86
2021/05/03 05:35:37;;;;;;;13.13;11.83;;;7.20;94.00;;;;;;5073191;28;20279;-85
2021/05/03 05:38:03;;;;;;;15.03;12.13;;;7.20;93.80;;;;;;5054638;28;20252;-84
2021/05/03 05:40:28;;;;;;;13.97;11.70;;;7.10;94.20;;;;;;5073187;28;20179;-85
2021/05/03 05:42:54;;;;;;;15.27;11.67;;;7.20;94.50;;;;;;5073035;28;20407;-85
2021/05/03 05:45:20;;;;;;;13.37;11.97;;;7.30;94.70;;;;;;5072619;28;20269;-86
2021/05/03 05:47:45;;;;;;;12.80;11.50;;;7.40;95.00;;;;;;5073084;28;20539;-85
2021/05/03 05:50:11;;;;;;;14.33;12.90;;;7.40;94.80;;;;;;5071818;28;20221;-85
2021/05/03 05:52:37;;;;;;;17.13;13.77;;;7.50;95.30;;;;;;5071846;28;20179;-86
2021/05/03 05:55:03;;;;;;;16.87;14.90;;;7.60;95.20;;;;;;5073599;28;20174;-85
2021/05/03 05:57:29;;;;;;;15.63;12.83;;;7.70;95.10;;;;;;5079660;28;20170;-85
2021/05/03 05:59:55;;;;;;;12.90;11.57;;;7.80;95.50;;;;;;5077567;28;20471;-85
2021/05/03 06:02:20;;;;;;;12.93;10.03;;;7.90;95.30;;;;;;5073118;28;20206;-85
2021/05/03 06:04:46;;;;;;;11.53;10.33;;;8.00;95.30;;;;;;5072869;28;20184;-86
2021/05/03 06:07:12;;;;;;;9.60;8.70;;;8.10;94.60;;;;;;5071412;28;20186;-87
2021/05/03 06:09:37;;;;;;;11.50;10.33;;;8.20;94.30;;;;;;5072609;28;20171;-87
2021/05/03 06:12:03;;;;;;;11.23;9.83;;;8.40;94.30;;;;;;5072014;28;20254;-83
2021/05/03 06:14:29;;;;;;;9.97;8.63;;;8.50;94.10;;;;;;5072134;28;20429;-87
2021/05/03 06:16:55;;;;;;;12.73;11.10;;;8.70;93.60;;;;;;5071484;28;20433;-86
2021/05/03 06:19:20;;;;;;;12.33;11.20;;;8.80;94.00;;;;;;5071655;28;20687;-86
2021/05/03 06:21:46;;;;;;;10.50;9.50;;;8.90;93.60;;;;;;5071112;28;20229;-87
2021/05/03 06:24:12;;;;;;;9.90;8.90;;;9.00;92.40;;;;;;5059971;28;20223;-89
2021/05/03 06:26:37;;;;;;;11.93;9.13;;;9.00;92.60;;;;;;5050948;28;20185;-91
2021/05/03 06:29:03;;;;;;;10.70;9.60;;;9.20;92.60;;;;;;5050769;28;20230;-84
2021/05/03 06:31:31;;;;;;;10.27;9.20;;;9.30;92.90;;;;;;5052073;28;20181;-90
2021/05/03 06:33:57;;;;;;;10.03;9.03;;;9.50;92.30;;;;;;5052419;28;20260;-92
2021/05/03 06:36:22;;;;;;;11.07;9.90;;;9.50;91.10;;;;;;5018587;28;20610;-90
2021/05/03 06:38:48;;;;;;;12.00;9.93;;;9.40;91.00;;;;;;5052939;28;20419;-91
2021/05/03 06:41:14;;;;;;;10.57;9.47;;;9.50;90.90;;;;;;5054251;28;20252;-90
2021/05/03 06:43:40;;;;;;;10.50;9.50;;;9.60;91.40;;;;;;5035653;28;20177;-91
2021/05/03 06:46:05;;;;;;;10.73;9.67;;;9.80;91.50;;;;;;5052237;28;20182;-91
2021/05/03 06:48:31;;;;;;;10.73;9.63;;;9.90;91.70;;;;;;5052751;28;20170;-90
2021/05/03 06:50:57;;;;;;;9.27;8.37;;;10.10;90.70;;;;;;5051296;28;20170;-90
2021/05/03 06:53:24;;;;;;;9.70;8.53;;;10.20;90.50;;;;;;5051547;28;20182;-90
2021/05/03 06:55:50;;;;;;;11.10;9.23;;;10.40;90.10;;;;;;5052313;28;20453;-91
2021/05/03 06:58:16;;;;;;;11.57;10.13;;;10.60;89.50;;;;;;5050785;28;20462;-91
2021/05/03 07:00:42;;;;;;;10.03;9.13;;;10.70;89.80;;;;;;5052132;28;20186;-91
2021/05/03 07:03:10;;;;;;;12.13;11.13;;;10.80;89.80;;;;;;5050868;28;20172;-92
2021/05/03 07:05:37;;;;;;;9.70;8.83;;;10.90;89.30;;;;;;5034917;28;20424;-92
2021/05/03 07:08:05;;;;;;;8.97;8.00;;;10.90;88.00;;;;;;5026600;28;20428;-87
2021/05/03 07:10:33;;;;;;;10.67;8.60;;;11.00;88.20;;;;;;5029440;28;20420;-87
2021/05/03 07:13:01;;;;;;;9.07;7.73;;;11.00;84.40;;;;;;5051323;28;20903;-87
2021/05/03 07:15:28;;;;;;;7.90;7.20;;;11.00;81.50;;;;;;5051958;28;20468;-87
2021/05/03 07:17:53;;;;;;;8.30;7.40;;;11.10;80.80;;;;;;5053675;28;20421;-81
2021/05/03 07:20:20;;;;;;;9.03;7.90;;;11.20;80.30;;;;;;5054900;28;20774;-80
2021/05/03 07:22:46;;;;;;;8.43;7.63;;;11.20;79.90;;;;;;5055455;28;20627;-81
2021/05/03 07:25:13;;;;;;;8.10;7.30;;;11.30;79.20;;;;;;5055098;28;20503;-85
2021/05/03 07:27:39;;;;;;;7.90;7.20;;;11.20;76.90;;;;;;5055530;28;20218;-84
2021/05/03 07:30:08;;;;;;;7.97;7.27;;;11.40;76.30;;;;;;5037092;28;20817;-83
2021/05/03 07:32:35;;;;;;;8.60;7.80;;;11.40;76.40;;;;;;5054709;28;21012;-81
2021/05/03 07:35:01;;;;;;;8.93;8.03;;;11.40;75.80;;;;;;5055230;28;20566;-81
2021/05/03 07:37:27;;;;;;;8.07;7.27;;;11.50;78.00;;;;;;5054550;28;20439;-81
2021/05/03 07:39:54;;;;;;;7.97;7.27;;;11.50;76.60;;;;;;5037557;28;20411;-80
2021/05/03 07:42:19;;;;;;;7.53;6.83;;;11.50;76.00;;;;;;5054485;28;20175;-84
2021/05/03 07:44:45;;;;;;;7.07;6.50;;;11.60;76.30;;;;;;5054902;28;21003;-81
2021/05/03 07:47:11;;;;;;;8.37;7.50;;;11.70;78.60;;;;;;5054507;28;20212;-84
2021/05/03 07:49:39;;;;;;;9.33;8.43;;;11.80;81.90;;;;;;5055395;28;20173;-86
2021/05/03 07:52:07;;;;;;;8.43;7.60;;;11.80;77.50;;;;;;5054560;28;20597;-82
2021/05/03 07:54:33;;;;;;;7.30;6.70;;;12.00;78.90;;;;;;5017283;28;20420;-85
2021/05/03 07:57:00;;;;;;;7.80;7.00;;;12.10;78.40;;;;;;5035234;28;20463;-85
2021/05/03 07:59:26;;;;;;;8.20;7.47;;;12.20;79.60;;;;;;5034371;28;20919;-85
2021/05/03 08:01:51;;;;;;;7.70;7.10;;;12.40;79.60;;;;;;5054596;28;20757;-86
2021/05/03 08:04:18;;;;;;;7.20;6.50;;;12.40;78.10;;;;;;5054314;28;20436;-89
2021/05/03 08:06:45;;;;;;;9.73;7.50;;;12.50;76.40;;;;;;5055375;28;20662;-87
2021/05/03 08:09:11;;;;;;;8.03;7.23;;;12.60;75.20;;;;;;5054093;28;20810;-87
2021/05/03 08:11:43;;;;;;;8.83;7.93;;;12.50;73.70;;;;;;5054337;28;20480;-87
2021/05/03 08:14:11;;;;;;;7.50;6.80;;;12.60;74.20;;;;;;5054191;28;20395;-82
2021/05/03 08:16:38;;;;;;;8.13;7.43;;;12.70;72.60;;;;;;5054598;28;20459;-86
2021/05/03 08:19:04;;;;;;;6.53;5.90;;;12.70;72.40;;;;;;5054241;28;20435;-84
2021/05/03 08:21:30;;;;;;;5.83;4.90;;;12.80;70.90;;;;;;5053940;28;20785;-84
2021/05/03 08:23:56;;;;;;;6.37;5.90;;;13.00;83.10;;;;;;5054612;28;20463;-85
2021/05/03 08:26:22;;;;;;;4.00;3.67;;;13.60;90.80;;;;;;5054553;28;20174;-84
2021/05/03 08:28:49;;;;;;;6.07;4.40;;;14.20;82.20;;;;;;5054158;28;20498;-86
2021/05/03 08:31:15;;;;;;;5.60;5.00;;;14.60;83.60;;;;;;5054372;28;20430;-85
2021/05/03 08:33:41;;;;;;;4.67;4.30;;;15.20;78.00;;;;;;5054260;28;20484;-84
2021/05/03 08:36:07;;;;;;;3.83;3.50;;;15.60;69.80;;;;;;5054000;28;20455;-84
2021/05/03 08:38:33;;;;;;;4.10;3.80;;;15.70;59.20;;;;;;5054435;28;20182;-85
2021/05/03 08:41:01;;;;;;;5.50;4.70;;;16.00;67.00;;;;;;5054513;28;20416;-85
2021/05/03 08:43:29;;;;;;;4.27;3.97;;;16.30;61.30;;;;;;5054251;28;20644;-85
2021/05/03 08:45:55;;;;;;;4.63;3.83;;;16.40;59.40;;;;;;5054695;28;20483;-86
2021/05/03 08:48:54;;;;;;;2.90;2.70;;;16.40;56.40;;;;;;5053385;28;20458;-88
2021/05/03 08:53:44;;;;;;;2.93;2.73;;;16.10;49.90;;;;;;5034779;28;20429;-88
2021/05/03 08:56:10;;;;;;;3.67;3.47;;;15.90;51.00;;;;;;5043291;28;20547;-87
2021/05/03 08:58:38;;;;;;;3.57;3.37;;;15.70;51.10;;;;;;5054403;28;20428;-87
2021/05/03 09:01:04;;;;;;;3.03;2.70;;;15.80;51.10;;;;;;5054390;28;20421;-87
2021/05/03 09:03:31;;;;;;;3.13;2.93;;;15.80;51.50;;;;;;5053828;28;20807;-89
2021/05/03 09:06:03;;;;;;;2.80;2.60;;;15.60;50.30;;;;;;5054328;28;20421;-87
2021/05/03 09:08:30;;;;;;;3.13;2.93;;;15.60;50.50;;;;;;5052975;28;20428;-86
2021/05/03 09:10:56;;;;;;;3.70;3.40;;;15.80;52.50;;;;;;5054135;28;20774;-89
2021/05/03 09:13:35;;;;;;;3.00;2.80;;;15.80;50.30;;;;;;5053176;28;20426;-88
2021/05/03 09:16:23;;;;;;;4.00;3.80;;;15.90;53.20;;;;;;5053559;28;20560;-86
2021/05/03 09:18:50;;;;;;;4.60;4.40;;;16.00;50.80;;;;;;5036445;28;20431;-87
2021/05/03 09:21:32;;;;;;;2.83;2.63;;;16.10;54.70;;;;;;5044928;28;20423;-86
2021/05/03 09:23:59;;;;;;;3.13;2.93;;;16.20;50.70;;;;;;5058736;28;20450;-90
2021/05/03 09:26:53;;;;;;;2.60;2.47;;;16.10;48.90;;;;;;5058041;28;20471;-91
2021/05/03 09:29:29;;;;;;;5.23;4.90;;;16.10;50.70;;;;;;5034519;28;20454;-89
2021/05/03 09:32:14;;;;;;;3.37;3.07;;;16.30;52.60;;;;;;5053473;28;20428;-91
2021/05/03 09:34:46;;;;;;;2.77;2.57;;;16.50;54.70;;;;;;5053140;28;20420;-89
2021/05/03 09:37:18;;;;;;;3.40;3.20;;;16.70;52.20;;;;;;5053015;28;20458;-79
2021/05/03 09:40:01;;;;;;;2.33;2.23;;;16.80;51.50;;;;;;5052455;28;20436;-88
2021/05/03 09:42:50;;;;;;;2.70;2.60;;;16.90;51.00;;;;;;5052066;28;20963;-88
2021/05/03 09:45:18;;;;;;;2.73;2.63;;;16.90;48.90;;;;;;5052345;28;20442;-86
2021/05/03 09:47:46;;;;;;;2.53;2.43;;;16.90;50.20;;;;;;5052736;28;20794;-87
2021/05/03 09:50:20;;;;;;;2.77;2.57;;;16.90;49.80;;;;;;5052691;28;20423;-79
2021/05/03 09:53:04;;;;;;;3.33;3.13;;;17.00;47.90;;;;;;5053431;28;20439;-87
2021/05/03 09:55:46;;;;;;;3.57;3.37;;;17.00;50.50;;;;;;5052315;28;20458;-88
2021/05/03 09:58:20;;;;;;;2.90;2.60;;;17.20;49.20;;;;;;5035505;28;20427;-78
2021/05/03 10:00:51;;;;;;;3.80;3.50;;;17.20;48.20;;;;;;5053377;28;20542;-88
2021/05/03 10:06:06;;;;;;;3.97;3.67;;;17.20;49.00;;;;;;5052949;28;20852;-88
2021/05/03 10:08:32;;;;;;;3.90;3.60;;;17.30;49.00;;;;;;5052042;28;20848;-88
2021/05/03 10:11:04;;;;;;;3.77;3.57;;;17.30;49.10;;;;;;5052913;28;20925;-88
2021/05/03 10:13:31;;;;;;;4.50;4.20;;;17.40;49.50;;;;;;5052745;28;20392;-88
2021/05/03 10:15:59;;;;;;;5.50;5.10;;;17.50;50.20;;;;;;5052951;28;20495;-88
2021/05/03 10:18:26;;;;;;;4.70;4.30;;;17.50;50.00;;;;;;5052456;28;20472;-88
2021/05/03 10:20:52;;;;;;;4.03;3.73;;;17.40;47.90;;;;;;5054188;28;20420;-88
2021/05/03 10:23:21;;;;;;;4.73;4.33;;;17.50;49.70;;;;;;5052656;28;20460;-88
2021/05/03 10:25:48;;;;;;;4.77;4.47;;;17.60;50.10;;;;;;5053185;28;20399;-88
2021/05/03 10:28:14;;;;;;;5.10;4.70;;;17.70;47.50;;;;;;5052377;28;20513;-86
2021/05/03 10:30:45;;;;;;;5.17;4.77;;;17.80;49.20;;;;;;5035266;28;20809;-86
2021/05/03 10:33:13;;;;;;;7.10;4.07;;;17.90;50.40;;;;;;5052928;28;20498;-88
2021/05/03 10:35:41;;;;;;;4.67;4.37;;;18.00;49.40;;;;;;5052823;28;20546;-88
2021/05/03 10:38:27;;;;;;;4.47;4.07;;;18.10;51.50;;;;;;5052859;28;20424;-88
2021/05/03 10:40:54;;;;;;;5.77;5.20;;;18.30;52.20;;;;;;5035920;28;20431;-88
2021/05/03 10:43:28;;;;;;;5.83;5.23;;;18.50;51.40;;;;;;5052218;28;20411;-87
2021/05/03 10:51:29;;;;;;;6.57;6.03;;;18.60;50.80;;;;;;5053238;28;20483;-78
2021/05/03 10:53:56;;;;;;;6.90;6.30;;;18.50;51.00;;;;;;5053977;28;20931;-88
2021/05/03 10:56:39;;;;;;;7.50;6.90;;;18.60;50.00;;;;;;5054338;28;20458;-89
2021/05/03 10:59:14;;;;;;;6.93;6.43;;;18.50;50.40;;;;;;5039705;28;20438;-88
2021/05/03 11:01:55;;;;;;;7.90;7.30;;;18.50;50.60;;;;;;5058216;28;20479;-89
2021/05/03 11:04:28;;;;;;;7.10;6.50;;;18.40;47.60;;;;;;5066106;28;20419;-90
2021/05/03 11:06:57;;;;;;;6.50;6.00;;;18.40;48.50;;;;;;5069146;28;20430;-87
2021/05/03 11:09:31;;;;;;;7.37;6.87;;;18.30;48.50;;;;;;5067706;28;20420;-87
2021/05/03 11:12:02;;;;;;;8.97;8.37;;;18.20;48.30;;;;;;5026564;28;20420;-87
2021/05/03 11:14:31;;;;;;;8.10;7.60;;;18.10;49.10;;;;;;5055620;28;20460;-87
2021/05/03 11:17:14;;;;;;;7.83;7.03;;;18.00;48.60;;;;;;5054648;28;20460;-90
2021/05/03 11:20:02;;;;;;;8.77;8.07;;;18.10;51.00;;;;;;5045506;28;20444;-89
2021/05/03 11:22:40;;;;;;;9.70;8.83;;;17.70;48.60;;;;;;5052299;28;20408;-89
2021/05/03 11:25:13;;;;;;;8.73;8.13;;;17.60;49.80;;;;;;5055798;28;20455;-91
2021/05/03 11:30:22;;;;;;;8.30;7.70;;;17.80;49.80;;;;;;5056729;28;20428;-89
2021/05/03 11:32:53;;;;;;;7.47;6.87;;;17.90;49.90;;;;;;5060770;28;20408;-79
2021/05/03 11:46:24;;;;;;;8.40;7.80;;;18.30;47.80;;;;;;5052092;28;20458;-75
2021/05/03 11:48:53;;;;;;;9.27;8.60;;;18.30;48.80;;;;;;5051769;28;20499;-75
2021/05/03 11:51:19;;;;;;;7.77;7.07;;;18.10;47.20;;;;;;5050899;28;20419;-76
2021/05/03 11:53:45;;;;;;;8.13;7.50;;;18.00;47.30;;;;;;5051723;28;20474;-75
2021/05/03 11:56:30;;;;;;;8.67;7.97;;;17.70;48.40;;;;;;5051780;28;20533;-75
2021/05/03 11:59:01;;;;;;;7.43;6.93;;;17.60;48.50;;;;;;5031807;28;20401;-75
2021/05/03 12:01:29;;;;;;;7.20;6.60;;;17.40;48.50;;;;;;5030908;28;20407;-75
2021/05/03 12:04:00;;;;;;;8.00;7.50;;;17.30;49.10;;;;;;5032735;28;20515;-75
2021/05/03 12:06:41;;;;;;;9.13;8.43;;;17.20;49.30;;;;;;5034999;28;20420;-75
2021/05/03 12:09:12;;;;;;;7.50;6.87;;;17.20;48.10;;;;;;5049994;28;20920;-75
2021/05/03 12:11:39;;;;;;;7.87;7.17;;;17.10;48.80;;;;;;5054609;28;20499;-75
2021/05/03 12:14:06;;;;;;;7.73;7.07;;;17.00;48.50;;;;;;5054816;28;20418;-76
2021/05/03 12:16:39;;;;;;;8.30;7.60;;;17.00;49.10;;;;;;5054177;28;20462;-74
2021/05/03 12:19:16;;;;;;;9.40;8.50;;;16.90;49.30;;;;;;5054246;28;20462;-78
2021/05/03 12:21:42;;;;;;;8.00;7.40;;;16.70;49.70;;;;;;5035735;28;20927;-79
2021/05/03 12:24:19;;;;;;;7.70;7.10;;;16.70;50.80;;;;;;5055125;28;20451;-83
2021/05/03 12:26:55;;;;;;;8.77;8.10;;;16.90;51.70;;;;;;5036381;28;20518;-78
2021/05/03 12:29:22;;;;;;;8.57;7.77;;;16.80;48.50;;;;;;5054138;28;20411;-81
2021/05/03 12:31:48;;;;;;;8.63;7.97;;;16.70;48.30;;;;;;5054821;28;20415;-79
2021/05/03 12:34:20;;;;;;;8.47;7.87;;;16.60;48.40;;;;;;5054921;28;20440;-78
2021/05/03 12:37:18;;;;;;;8.00;7.40;;;16.60;47.90;;;;;;5054835;28;20536;-79
2021/05/03 12:40:00;;;;;;;10.40;9.40;;;16.50;48.40;;;;;;5054228;28;20763;-77
2021/05/03 12:42:38;;;;;;;9.23;8.47;;;16.40;49.00;;;;;;5037084;28;20879;-86
2021/05/03 12:45:15;;;;;;;9.97;9.37;;;16.40;48.70;;;;;;5035735;28;20528;-85
2021/05/03 12:50:31;;;;;;;8.57;7.63;;;16.00;48.70;;;;;;5048362;28;20490;-85
2021/05/03 12:53:19;;;;;;;8.20;7.50;;;15.90;49.40;;;;;;5037835;28;20434;-85
2021/05/03 12:58:36;;;;;;;9.77;8.97;;;15.80;53.20;;;;;;5055158;28;20409;-84
2021/05/03 13:01:11;;;;;;;8.53;7.73;;;16.00;53.70;;;;;;5037169;28;20395;-84
2021/05/03 13:29:13;;;;;;;7.93;7.33;;;15.60;48.50;;;;;;5054245;28;20408;-89
2021/05/03 13:31:41;;;;;;;10.63;9.93;;;15.70;50.20;;;;;;5035670;28;20897;-90
2021/05/03 13:34:15;;;;;;;8.53;7.70;;;15.80;50.90;;;;;;5036458;28;20425;-88
2021/05/03 13:36:44;;;;;;;9.20;8.50;;;15.90;50.90;;;;;;5052527;28;20540;-88
2021/05/03 13:39:10;;;;;;;295.43;184.20;;;15.90;50.00;;;;;;5051505;28;20490;-89
2021/05/03 13:41:39;;;;;;;26.43;23.40;;;16.10;51.40;;;;;;5051614;28;20534;-88
2021/05/03 13:44:06;;;;;;;9.63;8.90;;;16.20;51.00;;;;;;5038198;28;20558;-88
2021/05/03 13:46:32;;;;;;;9.70;8.90;;;16.30;49.90;;;;;;5051899;28;20439;-89
2021/05/03 13:48:58;;;;;;;9.33;8.53;;;16.30;50.30;;;;;;5053271;28;20417;-85
2021/05/03 13:51:25;;;;;;;7.80;7.20;;;16.20;49.20;;;;;;5053545;28;20421;-92
2021/05/03 13:53:51;;;;;;;9.40;8.60;;;16.20;49.10;;;;;;5052514;28;20991;-85
2021/05/03 13:56:17;;;;;;;10.80;9.90;;;16.20;50.20;;;;;;5052601;28;20552;-86
2021/05/03 13:58:44;;;;;;;9.50;8.67;;;16.20;50.00;;;;;;5052624;28;20514;-86
2021/05/03 14:01:10;;;;;;;11.83;10.63;;;16.20;50.40;;;;;;5035161;28;20181;-86
2021/05/03 14:03:36;;;;;;;11.27;10.23;;;16.20;49.90;;;;;;5033922;28;20475;-87
2021/05/03 14:06:07;;;;;;;9.70;9.00;;;16.10;50.40;;;;;;5052856;28;20408;-87